Terminal Aerodrome Forecast
Issued by NWS New Orleans/Baton Rouge, LA

Home | Current Version | Previous Version | Text Only | Print | Product List | Glossary On
Versions: 1 2 3 4 5 6 7 8 9 10 11 12 13 14 15 16 17
458
FTUS44 KLIX 280520
TAFBTR
TAF
KBTR 280520Z 2806/2906 33005KT P6SM FEW035 FEW110
     FM281400 36007KT P6SM FEW040 FEW110
     FM282000 35010KT P6SM SCT045 BKN110
     FM282300 35008KT P6SM FEW050 SCT110
     FM290300 33004KT P6SM FEW045 SCT110=

USA.gov is the U.S. government's official web portal to all federal, state and local government web resources and services.